logo
Search for airport 
image banner adimage banner adimage banner ad
image banner ad

ED2336 - Grafschaft Haribo

Located in , Germany

ICAO - , IATA -

Data provided by Airmate  

General information

Coordinates: N50°34'37" E7°5'22"
Elevation is 771 feet MSL.
 
View others Airports in Rhineland-Palatinate

Operational data

Special qualification required
Current time UTC:
Current local time:
Weather at : EDDK - Koeln/Bonn ( 32 km )
METAR: EDDK 141620Z AUTO 08003KT 050V110 CAVOK 23/13 Q1012 NOSIG
TAF: TAF AMD EDDK 141539Z 1415/1518 30007KT CAVOK BECMG 1418/1421 11004KT
View NOTAMs / SUP AIP / TFR affecting this airport [VIEW]
Communications frequencies: [VIEW]

Runways:

Airport contact information

Address: Germany

Satellite view of ED2336